Time;durP1;ratioP1;P1;durP2;ratioP2;P2;SDS_P1;SDS_P2;PMS_P1;PMS_P2;Temp;Humidity;BMP_temperature;BMP_pressure;BME280_temperature;BME280_humidity;BME280_pressure;Samples;Min_cycle;Max_cycle;Signal;HPM_P1;HPM_P2
2022/05/05 00:02:22;;;;;;;13.52;7.63;;;8.20;99.90;;;;;;5030979;28;20069;-73
2022/05/05 00:04:48;;;;;;;13.13;6.65;;;8.20;99.90;;;;;;5032188;28;20052;-73
2022/05/05 00:07:14;;;;;;;8.55;6.22;;;8.20;99.90;;;;;;5031263;28;20052;-74
2022/05/05 00:09:39;;;;;;;14.05;6.25;;;8.20;99.90;;;;;;5030975;28;20380;-73
2022/05/05 00:14:49;;;;;;;11.15;6.60;;;8.20;99.90;;;;;;5032229;28;20045;-73
2022/05/05 00:17:15;;;;;;;6.75;5.07;;;8.20;99.90;;;;;;5032053;28;20038;-73
2022/05/05 00:19:42;;;;;;;17.92;6.38;;;8.20;99.90;;;;;;5031804;28;20037;-74
2022/05/05 00:22:09;;;;;;;11.43;6.20;;;8.20;99.90;;;;;;5030392;28;20164;-74
2022/05/05 00:24:36;;;;;;;11.88;5.63;;;8.20;99.90;;;;;;5030485;28;20040;-74
2022/05/05 00:27:02;;;;;;;10.68;5.57;;;8.20;99.90;;;;;;5031928;28;20081;-73
2022/05/05 00:29:28;;;;;;;14.10;6.40;;;8.10;99.90;;;;;;5030690;28;20538;-73
2022/05/05 00:31:53;;;;;;;13.32;6.47;;;8.10;99.90;;;;;;5030316;28;20045;-73
2022/05/05 00:34:19;;;;;;;9.85;5.55;;;8.20;99.90;;;;;;5031639;28;20043;-73
2022/05/05 00:36:45;;;;;;;7.70;6.00;;;8.10;99.90;;;;;;5032030;28;20038;-73
2022/05/05 00:39:11;;;;;;;12.00;6.10;;;8.10;99.90;;;;;;5031881;28;20041;-73
2022/05/05 00:41:39;;;;;;;11.05;5.75;;;8.10;99.90;;;;;;5031575;28;20090;-73
2022/05/05 00:44:06;;;;;;;11.68;6.70;;;8.20;99.90;;;;;;5031848;28;20049;-73
2022/05/05 00:46:32;;;;;;;11.18;5.65;;;8.10;99.90;;;;;;5031730;28;20045;-73
2022/05/05 00:48:58;;;;;;;14.13;6.40;;;8.10;99.90;;;;;;5031334;28;20038;-73
2022/05/05 00:51:24;;;;;;;14.20;6.22;;;8.10;99.90;;;;;;5031584;28;20033;-73
2022/05/05 00:53:50;;;;;;;13.25;5.55;;;8.10;99.90;;;;;;5031641;28;20483;-73
2022/05/05 00:56:16;;;;;;;7.72;5.53;;;8.10;99.90;;;;;;5031740;28;20112;-73
2022/05/05 00:58:44;;;;;;;12.00;6.90;;;8.10;99.90;;;;;;5031588;28;20034;-73
2022/05/05 01:01:11;;;;;;;9.25;5.50;;;8.10;99.90;;;;;;5031294;28;20038;-73
2022/05/05 01:03:37;;;;;;;9.82;5.80;;;8.10;99.90;;;;;;5031511;28;20037;-73
2022/05/05 01:06:05;;;;;;;13.25;6.93;;;8.10;99.90;;;;;;5031489;28;20501;-73
2022/05/05 01:08:33;;;;;;;13.82;6.95;;;8.10;99.90;;;;;;5030362;28;20073;-73
2022/05/05 01:10:58;;;;;;;9.50;6.63;;;8.00;99.90;;;;;;5031234;28;20487;-73
2022/05/05 01:13:25;;;;;;;10.75;7.00;;;8.00;99.90;;;;;;5031611;28;20048;-73
2022/05/05 01:15:52;;;;;;;12.27;6.50;;;8.00;99.90;;;;;;5030231;28;20041;-73
2022/05/05 01:18:18;;;;;;;11.35;6.80;;;7.90;99.90;;;;;;5033239;28;20053;-73
2022/05/05 01:20:47;;;;;;;14.38;7.28;;;8.00;99.90;;;;;;5035078;28;20029;-73
2022/05/05 01:23:14;;;;;;;10.35;7.35;;;8.00;99.90;;;;;;5035359;28;20088;-73
2022/05/05 01:28:24;;;;;;;12.85;7.22;;;8.00;99.90;;;;;;5034955;28;20053;-74
2022/05/05 01:30:50;;;;;;;10.93;7.10;;;8.00;99.90;;;;;;5033544;28;20125;-73
2022/05/05 01:33:17;;;;;;;13.25;7.25;;;8.00;99.90;;;;;;5035219;28;20457;-73
2022/05/05 01:35:45;;;;;;;11.05;7.45;;;8.00;99.90;;;;;;5033986;28;20053;-73
2022/05/05 01:38:13;;;;;;;11.25;7.10;;;7.90;99.90;;;;;;5035070;28;20476;-73
2022/05/05 01:40:43;;;;;;;15.82;7.97;;;7.90;99.90;;;;;;5033428;28;20052;-73
2022/05/05 01:43:10;;;;;;;14.88;8.02;;;7.90;99.90;;;;;;5017378;28;20470;-73
2022/05/05 01:45:36;;;;;;;14.52;7.15;;;7.80;99.90;;;;;;5035059;28;20083;-74
2022/05/05 01:48:02;;;;;;;11.15;7.50;;;7.80;99.90;;;;;;5034585;28;20442;-74
2022/05/05 01:50:30;;;;;;;11.88;7.00;;;7.80;99.90;;;;;;5033057;28;20037;-74
2022/05/05 01:52:57;;;;;;;11.05;6.38;;;7.80;99.90;;;;;;5034783;28;20048;-74
2022/05/05 01:55:22;;;;;;;10.13;6.32;;;7.80;99.90;;;;;;5034687;28;20064;-74
2022/05/05 01:57:49;;;;;;;15.55;7.07;;;7.90;99.90;;;;;;5034442;28;20503;-74
2022/05/05 02:00:15;;;;;;;10.90;6.05;;;7.90;99.90;;;;;;5033023;28;20065;-74
2022/05/05 02:02:44;;;;;;;11.73;6.22;;;7.90;99.90;;;;;;5034554;28;20056;-74
2022/05/05 02:05:11;;;;;;;9.52;5.60;;;7.90;99.90;;;;;;5033234;28;20037;-74
2022/05/05 02:07:38;;;;;;;11.18;6.65;;;7.90;99.90;;;;;;5034340;28;20045;-74
2022/05/05 02:10:09;;;;;;;14.00;6.40;;;7.90;99.90;;;;;;5033942;28;20077;-74
2022/05/05 02:12:38;;;;;;;14.88;6.43;;;7.80;99.90;;;;;;5033311;28;20038;-74
2022/05/05 02:15:08;;;;;;;9.98;6.47;;;7.80;99.90;;;;;;5032990;28;20124;-74
2022/05/05 02:17:37;;;;;;;10.65;5.95;;;7.80;99.90;;;;;;5033468;28;20064;-74
2022/05/05 02:20:05;;;;;;;12.35;6.07;;;7.80;99.90;;;;;;5028227;28;20388;-74
2022/05/05 02:22:30;;;;;;;9.57;6.18;;;7.80;99.90;;;;;;5026153;28;20038;-74
2022/05/05 02:24:56;;;;;;;9.50;6.43;;;7.80;99.90;;;;;;5033676;28;20405;-74
2022/05/05 02:27:22;;;;;;;13.65;5.75;;;7.80;99.90;;;;;;5033975;28;20100;-74
2022/05/05 02:29:48;;;;;;;9.80;6.43;;;7.80;99.90;;;;;;5032948;28;20037;-74
2022/05/05 02:32:16;;;;;;;14.32;6.57;;;7.80;99.90;;;;;;5033796;28;20128;-74
2022/05/05 02:34:42;;;;;;;14.40;6.72;;;7.80;99.90;;;;;;5032664;28;20133;-74
2022/05/05 02:39:53;;;;;;;11.48;6.38;;;7.80;99.90;;;;;;5032363;28;20057;-74
2022/05/05 02:42:20;;;;;;;11.38;6.75;;;7.80;99.90;;;;;;5033781;28;20037;-74
2022/05/05 02:44:46;;;;;;;18.63;6.55;;;7.80;99.90;;;;;;5032574;28;20454;-74
2022/05/05 02:47:12;;;;;;;11.82;6.18;;;7.70;99.90;;;;;;5033732;28;20049;-74
2022/05/05 02:49:37;;;;;;;10.27;5.95;;;7.80;99.90;;;;;;5032103;28;20463;-74
2022/05/05 02:52:05;;;;;;;8.95;6.32;;;7.70;99.90;;;;;;5033266;28;20037;-74
2022/05/05 02:54:50;;;;;;;12.13;6.70;;;7.70;99.90;;;;;;5032520;28;20472;-74
2022/05/05 02:57:18;;;;;;;11.95;6.57;;;7.70;99.90;;;;;;5032293;28;20526;-74
2022/05/05 02:59:43;;;;;;;13.00;6.80;;;7.70;99.90;;;;;;5033257;28;20586;-74
2022/05/05 03:02:09;;;;;;;11.25;6.35;;;7.60;99.90;;;;;;5033109;28;20108;-74
2022/05/05 03:04:35;;;;;;;9.63;7.05;;;7.70;99.90;;;;;;5032084;28;20461;-74
2022/05/05 03:07:00;;;;;;;12.27;6.80;;;7.70;99.90;;;;;;5032367;28;20125;-74
2022/05/05 03:09:27;;;;;;;13.20;7.22;;;7.70;99.90;;;;;;5031888;28;20117;-74
2022/05/05 03:11:52;;;;;;;13.50;6.40;;;7.70;99.90;;;;;;5031931;28;20772;-74
2022/05/05 03:14:18;;;;;;;15.85;7.05;;;7.70;99.90;;;;;;5033191;28;20121;-74
2022/05/05 03:16:43;;;;;;;13.10;7.07;;;7.70;99.90;;;;;;5033109;28;20037;-74
2022/05/05 03:19:09;;;;;;;9.85;7.28;;;7.80;99.90;;;;;;5033251;28;20042;-74
2022/05/05 03:21:36;;;;;;;11.40;6.60;;;7.70;99.90;;;;;;5032989;28;20045;-74
2022/05/05 03:24:01;;;;;;;12.13;6.85;;;7.70;99.90;;;;;;5032001;28;20049;-74
2022/05/05 03:26:27;;;;;;;11.27;6.72;;;7.70;99.90;;;;;;5032975;28;20033;-74
2022/05/05 03:28:52;;;;;;;13.07;7.32;;;7.70;99.90;;;;;;5032802;28;20124;-74
2022/05/05 03:31:18;;;;;;;12.25;8.38;;;7.70;99.90;;;;;;5032606;28;20045;-74
2022/05/05 03:33:43;;;;;;;12.30;8.15;;;7.70;99.90;;;;;;5031740;28;20053;-74
2022/05/05 03:36:09;;;;;;;15.48;8.65;;;7.70;99.90;;;;;;5033042;28;20044;-74
2022/05/05 03:38:35;;;;;;;10.43;8.60;;;7.70;99.90;;;;;;5031745;28;20048;-74
2022/05/05 03:41:01;;;;;;;15.18;8.85;;;7.60;99.90;;;;;;5032369;28;20514;-74
2022/05/05 03:43:26;;;;;;;15.60;8.52;;;7.60;99.90;;;;;;5032803;28;20033;-74
2022/05/05 03:45:52;;;;;;;13.07;8.35;;;7.60;99.90;;;;;;5032800;28;20499;-74
2022/05/05 03:48:18;;;;;;;12.15;7.72;;;7.60;99.90;;;;;;5031723;28;20041;-74
2022/05/05 03:50:43;;;;;;;13.88;9.07;;;7.60;99.90;;;;;;5014598;28;20087;-74
2022/05/05 03:53:09;;;;;;;13.73;8.48;;;7.60;99.90;;;;;;5031599;28;20037;-74
2022/05/05 03:55:34;;;;;;;18.45;9.60;;;7.60;99.90;;;;;;5031675;28;20116;-74
2022/05/05 03:58:00;;;;;;;21.00;11.25;;;7.60;99.90;;;;;;5032812;28;20521;-74
2022/05/05 04:00:27;;;;;;;20.13;10.23;;;7.60;99.90;;;;;;5031173;28;20070;-74
2022/05/05 04:05:37;;;;;;;15.93;10.50;;;7.70;99.90;;;;;;5032756;28;20049;-74
2022/05/05 04:08:03;;;;;;;15.57;10.00;;;7.70;99.90;;;;;;5032568;28;20045;-74
2022/05/05 04:10:29;;;;;;;16.35;10.32;;;7.70;99.90;;;;;;5031964;28;20384;-74
2022/05/05 04:12:55;;;;;;;17.55;11.48;;;7.60;99.90;;;;;;5032138;28;20087;-74
2022/05/05 04:15:21;;;;;;;15.60;9.63;;;7.50;99.90;;;;;;5032115;28;20037;-74
2022/05/05 04:17:47;;;;;;;13.15;9.90;;;7.60;99.90;;;;;;5032320;28;20054;-74
2022/05/05 04:20:12;;;;;;;15.18;9.70;;;7.60;99.90;;;;;;5031698;28;20045;-74
2022/05/05 04:22:38;;;;;;;21.95;9.95;;;7.60;99.90;;;;;;5032183;28;20144;-74
2022/05/05 04:25:05;;;;;;;13.95;10.13;;;7.50;99.90;;;;;;5032059;28;20044;-74
2022/05/05 04:27:32;;;;;;;16.05;9.55;;;7.50;99.90;;;;;;5031704;28;20514;-74
2022/05/05 04:29:57;;;;;;;13.20;9.73;;;7.50;99.90;;;;;;5031482;28;20040;-74
2022/05/05 04:32:23;;;;;;;17.35;9.35;;;7.60;99.90;;;;;;5032060;28;20029;-74
2022/05/05 04:34:49;;;;;;;15.85;10.43;;;7.60;99.90;;;;;;5032040;28;20037;-74
2022/05/05 04:37:14;;;;;;;17.10;10.43;;;7.60;99.90;;;;;;5031837;28;20033;-74
2022/05/05 04:39:42;;;;;;;15.77;11.57;;;7.70;99.90;;;;;;5030618;28;20491;-74
2022/05/05 04:42:08;;;;;;;17.95;10.32;;;7.60;99.90;;;;;;5030262;28;20553;-74
2022/05/05 04:44:34;;;;;;;16.92;10.82;;;7.70;99.90;;;;;;5030708;28;20045;-74
2022/05/05 04:47:01;;;;;;;17.80;10.80;;;7.80;99.90;;;;;;5031959;28;20506;-74
2022/05/05 04:49:26;;;;;;;14.00;11.40;;;7.80;99.90;;;;;;5030183;28;20046;-74
2022/05/05 04:51:52;;;;;;;14.52;10.18;;;7.80;99.90;;;;;;5030481;28;20048;-74
2022/05/05 04:54:18;;;;;;;17.17;10.15;;;7.90;99.90;;;;;;5035556;28;20515;-74
2022/05/05 04:56:43;;;;;;;16.17;11.50;;;7.90;99.90;;;;;;5017985;28;20410;-74
2022/05/05 04:59:09;;;;;;;15.60;11.23;;;7.90;99.90;;;;;;5034633;28;20045;-74
2022/05/05 05:01:34;;;;;;;16.70;11.63;;;7.90;99.90;;;;;;5035524;28;20078;-74
2022/05/05 05:04:02;;;;;;;21.70;11.07;;;7.90;99.90;;;;;;5034373;28;20037;-74
2022/05/05 05:06:28;;;;;;;19.30;12.25;;;8.00;99.90;;;;;;5017710;28;20034;-74
2022/05/05 05:08:54;;;;;;;19.95;11.75;;;8.00;99.90;;;;;;5035466;28;20087;-74
2022/05/05 05:11:20;;;;;;;18.23;11.55;;;8.00;99.90;;;;;;5033865;28;20041;-74
2022/05/05 05:13:45;;;;;;;17.90;11.98;;;8.00;99.90;;;;;;5034078;28;20384;-74
2022/05/05 05:16:11;;;;;;;18.90;12.82;;;8.00;99.90;;;;;;5034164;28;20065;-74
2022/05/05 05:18:36;;;;;;;25.77;12.93;;;8.00;99.90;;;;;;5034087;28;20163;-74
2022/05/05 05:21:02;;;;;;;20.85;13.02;;;8.00;99.90;;;;;;5033642;28;20049;-74
2022/05/05 05:23:28;;;;;;;21.75;12.63;;;8.10;99.90;;;;;;5035389;28;20064;-74
2022/05/05 05:25:53;;;;;;;20.50;12.80;;;8.10;99.90;;;;;;5035208;28;20128;-74
2022/05/05 05:28:19;;;;;;;17.10;10.93;;;8.10;99.90;;;;;;5035284;28;20073;-74
2022/05/05 05:30:44;;;;;;;16.27;11.10;;;8.20;99.90;;;;;;5033435;28;20125;-74
2022/05/05 05:33:10;;;;;;;19.08;11.25;;;8.20;99.90;;;;;;5033801;28;20550;-75
2022/05/05 05:35:35;;;;;;;20.77;11.18;;;8.30;99.90;;;;;;5035143;28;20033;-74
2022/05/05 05:38:02;;;;;;;18.58;11.70;;;8.30;99.90;;;;;;5035100;28;20099;-74
2022/05/05 05:40:27;;;;;;;18.30;12.60;;;8.40;99.90;;;;;;5034677;28;20052;-74
2022/05/05 05:42:53;;;;;;;18.90;11.90;;;8.50;99.90;;;;;;5034763;28;20049;-72
2022/05/05 05:45:18;;;;;;;15.63;10.02;;;8.50;99.90;;;;;;5035011;28;20041;-73
2022/05/05 05:47:44;;;;;;;21.10;11.38;;;8.60;99.90;;;;;;5034876;28;20049;-73
2022/05/05 05:50:10;;;;;;;19.95;11.15;;;8.60;99.90;;;;;;5066033;22;20045;-74
2022/05/05 05:52:36;;;;;;;29.75;11.55;;;8.60;99.90;;;;;;5053336;28;20037;-74
2022/05/05 05:55:02;;;;;;;31.23;11.57;;;8.60;99.90;;;;;;5054499;28;20123;-74
2022/05/05 05:57:28;;;;;;;20.05;11.52;;;8.70;99.90;;;;;;5053893;28;20479;-74
2022/05/05 05:59:54;;;;;;;21.48;11.45;;;8.70;99.90;;;;;;5054265;28;20540;-75
2022/05/05 06:05:05;;;;;;;30.25;12.43;;;8.80;99.90;;;;;;5054278;28;20049;-74
2022/05/05 06:07:30;;;;;;;19.38;10.15;;;8.80;99.90;;;;;;5042132;28;20045;-74
2022/05/05 06:09:56;;;;;;;17.40;11.13;;;8.90;99.90;;;;;;5037938;28;20634;-74
2022/05/05 06:12:22;;;;;;;18.02;11.57;;;8.90;99.90;;;;;;5034438;28;20034;-74
2022/05/05 06:14:47;;;;;;;16.95;10.43;;;8.90;99.90;;;;;;5033272;28;20113;-74
2022/05/05 06:17:13;;;;;;;23.50;11.55;;;9.00;99.90;;;;;;5016898;28;20420;-74
2022/05/05 06:19:38;;;;;;;20.48;11.90;;;9.10;99.90;;;;;;5033008;28;20045;-74
2022/05/05 06:22:04;;;;;;;19.67;10.63;;;9.10;99.90;;;;;;5033956;28;20376;-74
2022/05/05 06:24:29;;;;;;;18.15;11.32;;;9.20;99.90;;;;;;5037957;28;20487;-74
2022/05/05 06:26:55;;;;;;;23.15;11.07;;;9.20;99.90;;;;;;5034139;28;20415;-74
2022/05/05 06:29:20;;;;;;;17.13;10.80;;;9.30;99.90;;;;;;5034022;28;20041;-74
2022/05/05 06:31:46;;;;;;;15.27;10.73;;;9.40;99.90;;;;;;5032659;28;20041;-74
2022/05/05 06:34:11;;;;;;;21.95;11.40;;;9.40;99.90;;;;;;5032621;28;20033;-75
2022/05/05 06:36:37;;;;;;;17.40;10.13;;;9.50;99.90;;;;;;5032639;28;20449;-75
2022/05/05 06:39:03;;;;;;;20.90;9.93;;;9.50;99.90;;;;;;5033639;28;20045;-74
2022/05/05 06:41:28;;;;;;;20.45;10.77;;;9.60;99.90;;;;;;5033286;28;20124;-75
2022/05/05 06:43:54;;;;;;;16.23;10.02;;;9.70;99.90;;;;;;5032656;28;20041;-74
2022/05/05 06:46:20;;;;;;;15.13;9.40;;;9.70;99.90;;;;;;5033922;28;20126;-74
2022/05/05 06:48:45;;;;;;;17.92;10.82;;;9.80;99.90;;;;;;5033427;28;20041;-74
2022/05/05 06:51:11;;;;;;;21.80;11.77;;;9.90;99.90;;;;;;5033407;28;20029;-74
2022/05/05 06:53:37;;;;;;;18.65;10.75;;;10.00;99.90;;;;;;5033514;28;20450;-74
2022/05/05 06:56:02;;;;;;;14.85;9.88;;;10.00;99.90;;;;;;5032345;28;20038;-74
2022/05/05 06:58:28;;;;;;;19.48;11.10;;;10.00;99.90;;;;;;5033502;28;20124;-75
2022/05/05 07:03:38;;;;;;;17.88;10.60;;;10.10;99.90;;;;;;5032158;28;20045;-74
2022/05/05 07:06:05;;;;;;;18.20;10.25;;;10.30;99.90;;;;;;5032296;28;20052;-74
2022/05/05 07:10:52;;;;;;;19.65;9.90;;;10.30;99.90;;;;;;5032255;28;20045;-74
2022/05/05 07:11:19;;;;;;;17.60;10.25;;;10.40;99.90;;;;;;5031600;28;20057;-74
2022/05/05 07:13:45;;;;;;;14.40;10.02;;;10.40;99.90;;;;;;5033422;28;20457;-74
2022/05/05 07:16:11;;;;;;;17.95;9.70;;;10.50;99.90;;;;;;5032557;28;20052;-74
2022/05/05 07:18:37;;;;;;;17.00;10.10;;;10.60;99.90;;;;;;5031895;28;20037;-74
2022/05/05 07:21:03;;;;;;;21.02;10.00;;;10.70;99.90;;;;;;5031461;28;20497;-74
2022/05/05 07:23:28;;;;;;;14.85;8.98;;;10.80;99.90;;;;;;5015346;28;20138;-73
2022/05/05 07:25:54;;;;;;;18.00;9.68;;;10.80;99.90;;;;;;5033099;28;20041;-73
2022/05/05 07:28:19;;;;;;;19.52;10.38;;;10.90;99.90;;;;;;5032872;28;20073;-73
2022/05/05 07:30:45;;;;;;;18.20;9.30;;;10.90;99.90;;;;;;5032442;28;20049;-73
2022/05/05 07:33:10;;;;;;;21.88;9.75;;;11.10;99.90;;;;;;5031753;28;20044;-73
2022/05/05 07:35:39;;;;;;;14.73;9.38;;;11.10;99.90;;;;;;5032965;28;20124;-73
2022/05/05 07:38:05;;;;;;;20.08;8.68;;;11.20;99.90;;;;;;5032863;28;20041;-73
2022/05/05 07:40:30;;;;;;;17.33;8.18;;;11.30;99.90;;;;;;5032411;28;20052;-73
2022/05/05 07:42:56;;;;;;;12.93;8.40;;;11.30;99.90;;;;;;5032626;28;20037;-73
2022/05/05 07:45:22;;;;;;;15.32;9.65;;;11.40;99.90;;;;;;5032564;28;20037;-73
2022/05/05 07:47:48;;;;;;;16.25;8.43;;;11.50;99.90;;;;;;5031417;28;20049;-73
2022/05/05 07:50:14;;;;;;;12.30;8.30;;;11.50;99.90;;;;;;5030782;28;20044;-73
2022/05/05 07:52:40;;;;;;;16.45;9.90;;;11.60;99.90;;;;;;5031160;28;20121;-73
2022/05/05 07:55:06;;;;;;;12.90;8.80;;;11.80;99.90;;;;;;5031078;28;20124;-73
2022/05/05 07:57:32;;;;;;;14.75;8.07;;;11.80;99.90;;;;;;5032496;28;20038;-73
2022/05/05 07:59:58;;;;;;;12.90;8.40;;;11.90;99.90;;;;;;5030787;28;20068;-73
2022/05/05 08:02:23;;;;;;;13.32;7.93;;;12.00;99.90;;;;;;5032693;28;20407;-73
2022/05/05 08:04:49;;;;;;;16.08;7.75;;;12.10;99.90;;;;;;5041975;28;20029;-73
2022/05/05 08:07:14;;;;;;;13.45;8.02;;;12.20;99.90;;;;;;5042234;28;20042;-73
2022/05/05 08:09:40;;;;;;;14.52;7.82;;;12.30;99.90;;;;;;5052211;28;20041;-73
2022/05/05 08:12:07;;;;;;;11.55;7.55;;;12.40;99.90;;;;;;5052056;28;20033;-73
2022/05/05 08:14:33;;;;;;;14.20;7.45;;;12.50;99.90;;;;;;5050786;28;20041;-73
2022/05/05 08:16:58;;;;;;;16.48;7.13;;;12.60;99.90;;;;;;5050716;28;20132;-73
2022/05/05 08:19:24;;;;;;;10.52;7.00;;;12.70;99.90;;;;;;5052275;28;20052;-73
2022/05/05 08:21:50;;;;;;;10.65;6.72;;;12.80;99.90;;;;;;5051809;28;20043;-73
2022/05/05 08:29:45;;;;;;;13.30;6.82;;;13.10;98.80;;;;;;5050578;28;20498;-73
2022/05/05 08:32:10;;;;;;;20.75;6.57;;;13.20;98.20;;;;;;5050674;28;20065;-73
2022/05/05 08:34:36;;;;;;;15.77;6.97;;;13.30;96.50;;;;;;5051906;28;20421;-73
2022/05/05 08:37:02;;;;;;;11.10;6.05;;;13.30;96.80;;;;;;5051970;28;20041;-73
2022/05/05 08:39:28;;;;;;;8.85;5.30;;;13.30;96.00;;;;;;5051808;28;20460;-73
2022/05/05 08:41:54;;;;;;;11.85;5.78;;;13.40;95.70;;;;;;5051608;28;20124;-73
2022/05/05 08:44:20;;;;;;;12.32;5.65;;;13.40;95.40;;;;;;5052186;28;20048;-73
2022/05/05 08:46:50;;;;;;;9.23;5.72;;;13.50;95.50;;;;;;5050587;28;20041;-73
2022/05/05 08:49:20;;;;;;;8.02;4.95;;;13.60;93.10;;;;;;5050278;28;20052;-73
2022/05/05 08:51:48;;;;;;;14.18;5.82;;;13.80;90.10;;;;;;5051314;28;20051;-73
2022/05/05 08:54:18;;;;;;;10.93;5.55;;;13.90;90.60;;;;;;5051667;28;20033;-73
2022/05/05 08:56:48;;;;;;;11.95;6.30;;;14.00;90.80;;;;;;5033969;28;20465;-73
2022/05/05 08:59:15;;;;;;;12.93;6.13;;;14.10;91.60;;;;;;5050371;28;20104;-73
2022/05/05 09:01:41;;;;;;;10.48;5.32;;;14.30;91.90;;;;;;5049880;28;20130;-73
2022/05/05 09:04:07;;;;;;;8.38;3.85;;;14.40;83.70;;;;;;5051603;28;20073;-74
2022/05/05 09:06:49;;;;;;;8.77;5.38;;;14.50;80.10;;;;;;5051420;28;20047;-74
2022/05/05 09:09:34;;;;;;;14.73;5.70;;;14.60;76.20;;;;;;5051605;28;20041;-73
2022/05/05 09:12:10;;;;;;;11.73;5.40;;;14.70;80.40;;;;;;5051473;28;20037;-73
2022/05/05 09:14:50;;;;;;;8.63;4.97;;;14.90;82.70;;;;;;5033981;28;20087;-73
2022/05/05 09:17:21;;;;;;;11.35;6.40;;;15.00;80.40;;;;;;5050525;28;20045;-73
2022/05/05 09:19:53;;;;;;;15.65;5.82;;;15.20;85.80;;;;;;5051690;28;20094;-73
2022/05/05 09:22:27;;;;;;;10.37;4.87;;;15.40;83.90;;;;;;5051398;28;20068;-73
2022/05/05 09:24:56;;;;;;;;;;;15.60;84.60;;;;;;5052073;28;20049;-74
2022/05/05 09:27:28;;;;;;;7.28;4.82;;;15.70;79.20;;;;;;5050348;28;20019;-74
2022/05/05 09:30:14;;;;;;;9.48;4.82;;;15.80;76.20;;;;;;5051158;28;20120;-73
2022/05/05 09:32:42;;;;;;;13.18;5.70;;;15.90;74.60;;;;;;5049842;28;20049;-73
2022/05/05 09:35:10;;;;;;;9.75;5.13;;;16.00;74.20;;;;;;5051266;28;20029;-73
2022/05/05 09:37:41;;;;;;;8.68;4.72;;;16.30;72.40;;;;;;5051547;28;20107;-73
2022/05/05 09:40:07;;;;;;;9.45;4.40;;;16.40;75.20;;;;;;5053021;28;20044;-74
2022/05/05 09:42:44;;;;;;;10.55;5.18;;;16.40;72.00;;;;;;5054229;28;20048;-73
2022/05/05 09:45:17;;;;;;;8.20;4.80;;;16.50;70.30;;;;;;5054566;28;20403;-73
2022/05/05 09:47:46;;;;;;;7.40;4.88;;;16.60;71.90;;;;;;5053662;28;20070;-74
2022/05/05 09:50:15;;;;;;;9.43;5.13;;;16.70;71.00;;;;;;5054421;28;20283;-74
2022/05/05 09:58:16;;;;;;;8.80;4.60;;;16.80;66.70;;;;;;5054762;28;20049;-74
2022/05/05 10:00:52;;;;;;;7.97;5.60;;;16.90;68.10;;;;;;5053202;28;20510;-75
2022/05/05 10:04:00;;;;;;;10.48;5.38;;;17.00;66.50;;;;;;5054383;28;20040;-74
2022/05/05 10:06:39;;;;;;;10.63;6.30;;;17.30;64.70;;;;;;5053281;28;20087;-73
2022/05/05 10:09:09;;;;;;;9.90;5.35;;;17.50;64.40;;;;;;5053207;28;20091;-75
2022/05/05 10:11:34;;;;;;;13.20;7.28;;;17.60;63.70;;;;;;5052823;28;20391;-74
2022/05/05 10:14:02;;;;;;;9.30;6.30;;;17.60;63.20;;;;;;5053761;28;20040;-75
2022/05/05 10:16:31;;;;;;;11.77;6.20;;;17.50;63.50;;;;;;5054910;28;20375;-74
2022/05/05 10:18:58;;;;;;;9.68;5.90;;;17.50;62.80;;;;;;5053668;28;20041;-74
2022/05/05 10:22:00;;;;;;;8.85;5.40;;;17.50;61.50;;;;;;5052660;28;20043;-74
2022/05/05 10:24:30;;;;;;;8.73;5.63;;;17.30;59.80;;;;;;5053396;28;20384;-74
2022/05/05 10:27:01;;;;;;;10.25;6.68;;;17.30;63.80;;;;;;5054179;28;20084;-74
2022/05/05 10:29:34;;;;;;;9.15;5.60;;;17.50;63.70;;;;;;5053093;28;20041;-75
2022/05/05 10:32:18;;;;;;;11.75;6.22;;;17.70;61.50;;;;;;5052666;28;20422;-75
2022/05/05 10:35:03;;;;;;;6.80;5.18;;;17.70;61.80;;;;;;5054243;28;20045;-74
2022/05/05 10:37:35;;;;;;;9.73;5.15;;;17.80;62.10;;;;;;5054170;28;20033;-74
2022/05/05 10:40:08;;;;;;;8.90;5.60;;;17.80;64.80;;;;;;5050272;28;20033;-73
2022/05/05 10:42:45;;;;;;;8.93;5.03;;;17.80;62.40;;;;;;5042424;28;20505;-73
2022/05/05 10:45:17;;;;;;;9.82;5.05;;;18.00;61.20;;;;;;5034504;28;20052;-74
2022/05/05 10:47:52;;;;;;;8.25;5.10;;;17.80;60.20;;;;;;5033782;28;20041;-74
2022/05/05 10:50:39;;;;;;;9.60;6.00;;;17.70;59.60;;;;;;5032095;28;20426;-74
2022/05/05 10:53:07;;;;;;;7.32;4.55;;;17.80;59.10;;;;;;5032179;28;20041;-74
2022/05/05 10:55:40;;;;;;;7.50;5.00;;;17.80;61.30;;;;;;5032194;28;20038;-74
2022/05/05 10:58:09;;;;;;;7.10;4.47;;;17.80;60.90;;;;;;5032584;28;20506;-74
2022/05/05 11:00:42;;;;;;;8.52;5.35;;;17.70;60.10;;;;;;5031993;28;20546;-75
2022/05/05 11:03:15;;;;;;;;;;;17.70;60.50;;;;;;5032763;28;20095;-74
2022/05/05 11:05:41;;;;;;;9.03;5.33;;;17.70;61.60;;;;;;5032201;28;19917;-74
2022/05/05 11:08:10;;;;;;;10.05;5.57;;;17.80;61.10;;;;;;5033520;28;20307;-74
2022/05/05 11:10:41;;;;;;;8.55;5.55;;;17.90;60.60;;;;;;5033172;28;20115;-74
2022/05/05 11:13:25;;;;;;;13.45;5.57;;;17.90;61.40;;;;;;5033398;28;20384;-74
2022/05/05 11:21:32;;;;;;;9.40;5.10;;;18.00;61.30;;;;;;5041943;28;20045;-74
2022/05/05 11:21:49;;;;;;;11.07;5.38;;;18.00;59.90;;;;;;5036756;28;20048;-75
2022/05/05 11:24:27;;;;;;;6.78;4.75;;;18.10;63.10;;;;;;5032057;28;20050;-74
2022/05/05 11:26:52;;;;;;;8.10;5.38;;;18.20;61.80;;;;;;5033228;28;20038;-75
2022/05/05 11:29:18;;;;;;;8.90;5.50;;;18.20;60.80;;;;;;5031557;28;20048;-75
2022/05/05 11:31:56;;;;;;;8.57;5.25;;;18.30;61.10;;;;;;5031375;28;20560;-74
2022/05/05 11:34:22;;;;;;;7.85;4.97;;;18.40;59.40;;;;;;5015423;28;20056;-74
2022/05/05 11:36:47;;;;;;;8.27;5.53;;;18.50;60.30;;;;;;5031645;28;20042;-74
2022/05/05 11:39:20;;;;;;;9.98;4.97;;;18.60;60.00;;;;;;5032613;28;20033;-75
2022/05/05 11:42:04;;;;;;;7.53;5.40;;;18.70;60.30;;;;;;5031516;28;20112;-74
2022/05/05 11:44:30;;;;;;;7.65;5.50;;;18.20;57.90;;;;;;5031414;28;20037;-74
2022/05/05 11:46:57;;;;;;;8.48;5.93;;;18.00;58.50;;;;;;5031482;28;20128;-74
2022/05/05 11:49:25;;;;;;;6.70;4.70;;;17.80;58.10;;;;;;5051776;23;20041;-74
2022/05/05 11:51:51;;;;;;;8.05;5.53;;;18.10;59.00;;;;;;5051877;28;20040;-74
2022/05/05 11:54:28;;;;;;;10.55;5.88;;;18.20;60.00;;;;;;5051125;28;20529;-73
2022/05/05 11:56:54;;;;;;;8.35;5.97;;;18.00;58.90;;;;;;5050857;28;20029;-72
2022/05/05 12:02:14;;;;;;;9.77;6.00;;;18.10;60.90;;;;;;5033994;28;20411;-72
2022/05/05 12:04:49;;;;;;;8.98;6.15;;;18.10;60.60;;;;;;5031471;28;20051;-72
2022/05/05 12:07:23;;;;;;;11.98;6.15;;;18.20;61.10;;;;;;5032415;28;20041;-72
2022/05/05 12:09:55;;;;;;;9.45;5.82;;;18.30;61.20;;;;;;5030699;28;20044;-72
2022/05/05 12:12:21;;;;;;;10.65;6.28;;;18.20;59.70;;;;;;5032199;28;20144;-72
2022/05/05 12:14:53;;;;;;;11.88;6.45;;;18.30;60.70;;;;;;5032510;28;20037;-72
2022/05/05 12:17:22;;;;;;;11.95;6.97;;;18.30;61.10;;;;;;5030863;28;20115;-72
2022/05/05 12:19:50;;;;;;;13.30;6.40;;;18.10;60.20;;;;;;5030757;28;20041;-72
2022/05/05 12:22:33;;;;;;;8.82;6.15;;;18.30;61.20;;;;;;5031826;28;20121;-73
2022/05/05 12:25:02;;;;;;;;;;;18.30;60.20;;;;;;5031507;28;20041;-73
2022/05/05 12:27:27;;;;;;;8.70;5.78;;;18.00;59.30;;;;;;5030887;28;19960;-72
2022/05/05 12:29:53;;;;;;;8.80;5.82;;;18.00;60.60;;;;;;5014160;28;20073;-72
2022/05/05 12:32:19;;;;;;;9.32;6.22;;;18.20;61.30;;;;;;5031842;28;20052;-73
2022/05/05 12:34:46;;;;;;;8.90;5.90;;;18.30;60.40;;;;;;5031828;28;20079;-73
2022/05/05 12:37:14;;;;;;;7.57;5.43;;;18.30;60.50;;;;;;5030503;28;20048;-73
2022/05/05 12:39:56;;;;;;;10.60;5.65;;;18.20;60.10;;;;;;5030291;28;20060;-72
2022/05/05 12:42:23;;;;;;;11.10;5.88;;;18.40;61.40;;;;;;5042219;28;20041;-72
2022/05/05 12:44:49;;;;;;;9.38;5.25;;;18.40;60.60;;;;;;5031473;28;20517;-72
2022/05/05 12:47:22;;;;;;;9.60;6.00;;;18.60;60.30;;;;;;5050157;28;20051;-73
2022/05/05 12:49:48;;;;;;;;;;;18.60;58.80;;;;;;5050532;28;20045;-72
2022/05/05 13:00:26;;;;;;;10.77;6.82;;;18.50;56.90;;;;;;5051217;28;20494;-73
2022/05/05 13:02:52;;;;;;;7.43;6.10;;;18.50;56.90;;;;;;5049683;28;20120;-73
2022/05/05 13:05:18;;;;;;;10.85;6.55;;;18.60;57.20;;;;;;5051431;28;20506;-72
2022/05/05 13:07:44;;;;;;;10.15;5.85;;;18.60;57.90;;;;;;5050018;28;20029;-72
2022/05/05 13:10:10;;;;;;;5.57;4.97;;;18.60;57.50;;;;;;5050518;28;20411;-73
2022/05/05 13:12:36;;;;;;;8.25;5.40;;;18.70;58.00;;;;;;5051130;28;20035;-73
2022/05/05 13:15:01;;;;;;;9.52;6.13;;;18.90;59.10;;;;;;5053390;28;20059;-73
2022/05/05 13:17:27;;;;;;;10.63;6.22;;;19.00;59.50;;;;;;5055268;28;20067;-72
2022/05/05 13:19:52;;;;;;;9.85;5.57;;;19.20;60.80;;;;;;5053637;28;20041;-73
2022/05/05 13:22:18;;;;;;;10.05;5.40;;;19.20;59.20;;;;;;5054801;28;20036;-73
2022/05/05 13:24:43;;;;;;;6.82;5.55;;;19.20;57.90;;;;;;5052687;28;20063;-71
2022/05/05 13:27:09;;;;;;;8.45;5.75;;;19.20;56.70;;;;;;5054727;28;20130;-72
2022/05/05 13:29:34;;;;;;;7.07;5.05;;;18.90;56.60;;;;;;5054299;28;20095;-72